sensor_id;sensor_type;location;lat;lon;timestamp;P1;durP1;ratioP1;P2;durP2;ratioP2
26864;SDS011;40618;51.166;10.322;2023-12-29T00:01:47;1.70;;;0.80;;
26864;SDS011;40618;51.166;10.322;2023-12-29T00:04:12;1.60;;;1.10;;
26864;SDS011;40618;51.166;10.322;2023-12-29T00:06:38;1.45;;;1.13;;
26864;SDS011;40618;51.166;10.322;2023-12-29T00:09:05;2.08;;;0.80;;
26864;SDS011;40618;51.166;10.322;2023-12-29T00:11:30;1.38;;;0.90;;
26864;SDS011;40618;51.166;10.322;2023-12-29T00:13:56;1.05;;;0.63;;
26864;SDS011;40618;51.166;10.322;2023-12-29T00:16:21;1.95;;;1.00;;
26864;SDS011;40618;51.166;10.322;2023-12-29T00:18:47;1.52;;;0.80;;
26864;SDS011;40618;51.166;10.322;2023-12-29T00:21:12;1.05;;;0.80;;
26864;SDS011;40618;51.166;10.322;2023-12-29T00:23:38;2.17;;;0.90;;
26864;SDS011;40618;51.166;10.322;2023-12-29T00:26:04;3.60;;;0.93;;
26864;SDS011;40618;51.166;10.322;2023-12-29T00:28:29;2.30;;;0.68;;
26864;SDS011;40618;51.166;10.322;2023-12-29T00:30:55;1.13;;;0.60;;
26864;SDS011;40618;51.166;10.322;2023-12-29T00:33:20;2.40;;;0.80;;
26864;SDS011;40618;51.166;10.322;2023-12-29T00:35:46;0.85;;;0.70;;
26864;SDS011;40618;51.166;10.322;2023-12-29T00:38:11;1.70;;;0.90;;
26864;SDS011;40618;51.166;10.322;2023-12-29T00:40:37;1.85;;;1.20;;
26864;SDS011;40618;51.166;10.322;2023-12-29T00:43:03;1.30;;;0.85;;
26864;SDS011;40618;51.166;10.322;2023-12-29T00:45:28;1.33;;;0.55;;
26864;SDS011;40618;51.166;10.322;2023-12-29T00:47:57;2.17;;;0.85;;
26864;SDS011;40618;51.166;10.322;2023-12-29T00:50:24;1.30;;;1.00;;
26864;SDS011;40618;51.166;10.322;2023-12-29T00:52:51;2.30;;;1.00;;
26864;SDS011;40618;51.166;10.322;2023-12-29T00:55:17;0.95;;;0.80;;
26864;SDS011;40618;51.166;10.322;2023-12-29T00:57:42;0.82;;;0.68;;
26864;SDS011;40618;51.166;10.322;2023-12-29T01:00:10;0.75;;;0.68;;
26864;SDS011;40618;51.166;10.322;2023-12-29T01:02:38;0.87;;;0.57;;
26864;SDS011;40618;51.166;10.322;2023-12-29T01:05:04;1.85;;;0.80;;
26864;SDS011;40618;51.166;10.322;2023-12-29T01:07:31;0.80;;;0.70;;
26864;SDS011;40618;51.166;10.322;2023-12-29T01:09:56;1.25;;;0.70;;
26864;SDS011;40618;51.166;10.322;2023-12-29T01:12:22;1.15;;;0.60;;
26864;SDS011;40618;51.166;10.322;2023-12-29T01:14:48;1.30;;;0.60;;
26864;SDS011;40618;51.166;10.322;2023-12-29T01:17:14;0.63;;;0.55;;
26864;SDS011;40618;51.166;10.322;2023-12-29T01:19:39;0.80;;;0.63;;
26864;SDS011;40618;51.166;10.322;2023-12-29T01:22:05;0.75;;;0.70;;
26864;SDS011;40618;51.166;10.322;2023-12-29T01:24:30;2.60;;;0.85;;
26864;SDS011;40618;51.166;10.322;2023-12-29T01:26:56;0.77;;;0.68;;
26864;SDS011;40618;51.166;10.322;2023-12-29T01:29:21;0.60;;;0.60;;
26864;SDS011;40618;51.166;10.322;2023-12-29T01:31:47;1.08;;;0.80;;
26864;SDS011;40618;51.166;10.322;2023-12-29T01:34:13;0.50;;;0.40;;
26864;SDS011;40618;51.166;10.322;2023-12-29T01:36:39;0.73;;;0.50;;
26864;SDS011;40618;51.166;10.322;2023-12-29T01:39:04;0.82;;;0.70;;
26864;SDS011;40618;51.166;10.322;2023-12-29T01:41:30;1.30;;;0.52;;
26864;SDS011;40618;51.166;10.322;2023-12-29T01:44:11;0.70;;;0.70;;
26864;SDS011;40618;51.166;10.322;2023-12-29T01:46:45;0.60;;;0.60;;
26864;SDS011;40618;51.166;10.322;2023-12-29T01:49:15;0.90;;;0.55;;
26864;SDS011;40618;51.166;10.322;2023-12-29T01:51:43;0.75;;;0.50;;
26864;SDS011;40618;51.166;10.322;2023-12-29T01:54:10;0.90;;;0.75;;
26864;SDS011;40618;51.166;10.322;2023-12-29T01:56:38;0.95;;;0.88;;
26864;SDS011;40618;51.166;10.322;2023-12-29T01:59:05;0.55;;;0.55;;
26864;SDS011;40618;51.166;10.322;2023-12-29T02:01:31;1.25;;;0.65;;
26864;SDS011;40618;51.166;10.322;2023-12-29T02:03:57;0.47;;;0.45;;
26864;SDS011;40618;51.166;10.322;2023-12-29T02:06:23;0.75;;;0.40;;
26864;SDS011;40618;51.166;10.322;2023-12-29T02:08:50;1.25;;;0.57;;
26864;SDS011;40618;51.166;10.322;2023-12-29T02:11:16;2.08;;;0.93;;
26864;SDS011;40618;51.166;10.322;2023-12-29T02:13:43;1.20;;;0.70;;
26864;SDS011;40618;51.166;10.322;2023-12-29T02:16:14;0.60;;;0.60;;
26864;SDS011;40618;51.166;10.322;2023-12-29T02:18:47;0.60;;;0.60;;
26864;SDS011;40618;51.166;10.322;2023-12-29T02:21:15;1.38;;;0.70;;
26864;SDS011;40618;51.166;10.322;2023-12-29T02:23:41;0.93;;;0.60;;
26864;SDS011;40618;51.166;10.322;2023-12-29T02:26:07;0.90;;;0.47;;
26864;SDS011;40618;51.166;10.322;2023-12-29T02:28:43;1.13;;;0.70;;
26864;SDS011;40618;51.166;10.322;2023-12-29T02:31:18;1.00;;;0.63;;
26864;SDS011;40618;51.166;10.322;2023-12-29T02:33:47;2.13;;;0.90;;
26864;SDS011;40618;51.166;10.322;2023-12-29T02:36:16;0.82;;;0.60;;
26864;SDS011;40618;51.166;10.322;2023-12-29T02:38:43;2.08;;;1.13;;
26864;SDS011;40618;51.166;10.322;2023-12-29T02:41:09;0.70;;;0.60;;
26864;SDS011;40618;51.166;10.322;2023-12-29T02:43:38;2.10;;;0.70;;
26864;SDS011;40618;51.166;10.322;2023-12-29T02:46:04;1.92;;;0.80;;
26864;SDS011;40618;51.166;10.322;2023-12-29T02:48:30;1.40;;;0.75;;
26864;SDS011;40618;51.166;10.322;2023-12-29T02:50:55;1.05;;;0.70;;
26864;SDS011;40618;51.166;10.322;2023-12-29T02:53:21;1.23;;;0.80;;
26864;SDS011;40618;51.166;10.322;2023-12-29T02:55:46;1.15;;;0.80;;
26864;SDS011;40618;51.166;10.322;2023-12-29T02:58:12;1.17;;;0.73;;
26864;SDS011;40618;51.166;10.322;2023-12-29T03:00:37;1.17;;;0.95;;
26864;SDS011;40618;51.166;10.322;2023-12-29T03:03:03;1.85;;;0.90;;
26864;SDS011;40618;51.166;10.322;2023-12-29T03:05:29;1.60;;;0.98;;
26864;SDS011;40618;51.166;10.322;2023-12-29T03:07:54;1.23;;;0.80;;
26864;SDS011;40618;51.166;10.322;2023-12-29T03:10:20;0.82;;;0.70;;
26864;SDS011;40618;51.166;10.322;2023-12-29T03:12:45;1.15;;;0.80;;
26864;SDS011;40618;51.166;10.322;2023-12-29T03:15:11;0.93;;;0.77;;
26864;SDS011;40618;51.166;10.322;2023-12-29T03:17:37;2.65;;;1.10;;
26864;SDS011;40618;51.166;10.322;2023-12-29T03:20:02;1.88;;;1.15;;
26864;SDS011;40618;51.166;10.322;2023-12-29T03:22:29;1.05;;;0.80;;
26864;SDS011;40618;51.166;10.322;2023-12-29T03:24:55;2.28;;;0.80;;
26864;SDS011;40618;51.166;10.322;2023-12-29T03:27:21;1.60;;;1.17;;
26864;SDS011;40618;51.166;10.322;2023-12-29T03:29:46;4.00;;;1.30;;
26864;SDS011;40618;51.166;10.322;2023-12-29T03:32:12;1.58;;;0.90;;
26864;SDS011;40618;51.166;10.322;2023-12-29T03:34:37;1.20;;;0.82;;
26864;SDS011;40618;51.166;10.322;2023-12-29T03:37:03;3.25;;;1.27;;
26864;SDS011;40618;51.166;10.322;2023-12-29T03:39:29;2.15;;;1.55;;
26864;SDS011;40618;51.166;10.322;2023-12-29T03:41:54;3.38;;;1.52;;
26864;SDS011;40618;51.166;10.322;2023-12-29T03:44:20;4.45;;;1.40;;
26864;SDS011;40618;51.166;10.322;2023-12-29T03:46:46;2.88;;;1.13;;
26864;SDS011;40618;51.166;10.322;2023-12-29T03:49:11;1.05;;;0.93;;
26864;SDS011;40618;51.166;10.322;2023-12-29T03:51:37;5.32;;;1.25;;
26864;SDS011;40618;51.166;10.322;2023-12-29T03:54:02;1.88;;;0.95;;
26864;SDS011;40618;51.166;10.322;2023-12-29T03:56:28;2.83;;;1.30;;
26864;SDS011;40618;51.166;10.322;2023-12-29T03:58:54;3.13;;;0.93;;
26864;SDS011;40618;51.166;10.322;2023-12-29T04:01:19;2.67;;;0.98;;
26864;SDS011;40618;51.166;10.322;2023-12-29T04:03:45;1.67;;;0.95;;
26864;SDS011;40618;51.166;10.322;2023-12-29T04:06:11;3.97;;;1.30;;
26864;SDS011;40618;51.166;10.322;2023-12-29T04:08:37;1.30;;;0.85;;
26864;SDS011;40618;51.166;10.322;2023-12-29T04:11:03;1.88;;;0.90;;
26864;SDS011;40618;51.166;10.322;2023-12-29T04:13:29;3.03;;;1.42;;
26864;SDS011;40618;51.166;10.322;2023-12-29T04:15:56;1.70;;;1.10;;
26864;SDS011;40618;51.166;10.322;2023-12-29T04:18:22;3.75;;;1.13;;
26864;SDS011;40618;51.166;10.322;2023-12-29T04:20:49;1.58;;;0.98;;
26864;SDS011;40618;51.166;10.322;2023-12-29T04:23:14;3.55;;;1.10;;
26864;SDS011;40618;51.166;10.322;2023-12-29T04:25:40;2.15;;;1.00;;
26864;SDS011;40618;51.166;10.322;2023-12-29T04:28:07;3.63;;;1.20;;
26864;SDS011;40618;51.166;10.322;2023-12-29T04:30:33;2.22;;;1.45;;
26864;SDS011;40618;51.166;10.322;2023-12-29T04:33:00;3.65;;;2.47;;
26864;SDS011;40618;51.166;10.322;2023-12-29T04:35:25;3.58;;;2.38;;
26864;SDS011;40618;51.166;10.322;2023-12-29T04:37:51;4.72;;;2.05;;
26864;SDS011;40618;51.166;10.322;2023-12-29T04:40:17;3.03;;;2.20;;
26864;SDS011;40618;51.166;10.322;2023-12-29T04:42:43;5.68;;;1.65;;
26864;SDS011;40618;51.166;10.322;2023-12-29T04:45:09;5.90;;;3.33;;
26864;SDS011;40618;51.166;10.322;2023-12-29T04:47:35;1.95;;;1.75;;
26864;SDS011;40618;51.166;10.322;2023-12-29T04:50:01;5.82;;;3.00;;
26864;SDS011;40618;51.166;10.322;2023-12-29T04:52:27;3.53;;;1.63;;
26864;SDS011;40618;51.166;10.322;2023-12-29T04:54:53;3.10;;;2.53;;
26864;SDS011;40618;51.166;10.322;2023-12-29T04:57:19;3.90;;;2.03;;
26864;SDS011;40618;51.166;10.322;2023-12-29T04:59:45;6.35;;;2.67;;
26864;SDS011;40618;51.166;10.322;2023-12-29T05:02:10;4.43;;;2.17;;
26864;SDS011;40618;51.166;10.322;2023-12-29T05:04:36;2.97;;;1.30;;
26864;SDS011;40618;51.166;10.322;2023-12-29T05:07:03;2.13;;;1.30;;
26864;SDS011;40618;51.166;10.322;2023-12-29T05:09:30;4.03;;;1.83;;
26864;SDS011;40618;51.166;10.322;2023-12-29T05:11:56;1.92;;;1.25;;
26864;SDS011;40618;51.166;10.322;2023-12-29T05:14:21;3.83;;;2.38;;
26864;SDS011;40618;51.166;10.322;2023-12-29T05:16:47;1.98;;;1.52;;
26864;SDS011;40618;51.166;10.322;2023-12-29T05:19:12;5.55;;;1.63;;
26864;SDS011;40618;51.166;10.322;2023-12-29T05:21:38;2.10;;;1.48;;
26864;SDS011;40618;51.166;10.322;2023-12-29T05:24:03;3.35;;;1.45;;
26864;SDS011;40618;51.166;10.322;2023-12-29T05:26:31;3.30;;;1.40;;
26864;SDS011;40618;51.166;10.322;2023-12-29T05:28:57;2.72;;;0.98;;
26864;SDS011;40618;51.166;10.322;2023-12-29T05:31:22;2.88;;;1.08;;
26864;SDS011;40618;51.166;10.322;2023-12-29T05:33:48;1.92;;;1.30;;
26864;SDS011;40618;51.166;10.322;2023-12-29T05:36:13;2.33;;;1.05;;
26864;SDS011;40618;51.166;10.322;2023-12-29T05:38:39;5.10;;;1.20;;
26864;SDS011;40618;51.166;10.322;2023-12-29T05:41:06;5.57;;;1.50;;
26864;SDS011;40618;51.166;10.322;2023-12-29T05:43:32;8.18;;;1.23;;
26864;SDS011;40618;51.166;10.322;2023-12-29T05:45:58;2.58;;;1.20;;
26864;SDS011;40618;51.166;10.322;2023-12-29T05:48:25;5.20;;;1.80;;
26864;SDS011;40618;51.166;10.322;2023-12-29T05:50:51;3.15;;;1.30;;
26864;SDS011;40618;51.166;10.322;2023-12-29T05:53:17;6.45;;;1.38;;
26864;SDS011;40618;51.166;10.322;2023-12-29T05:55:43;5.25;;;1.23;;
26864;SDS011;40618;51.166;10.322;2023-12-29T05:58:10;2.45;;;1.13;;
26864;SDS011;40618;51.166;10.322;2023-12-29T06:00:38;3.20;;;1.10;;
26864;SDS011;40618;51.166;10.322;2023-12-29T06:03:04;2.45;;;1.02;;
26864;SDS011;40618;51.166;10.322;2023-12-29T06:05:30;3.15;;;1.42;;
26864;SDS011;40618;51.166;10.322;2023-12-29T06:07:56;2.75;;;1.05;;
26864;SDS011;40618;51.166;10.322;2023-12-29T06:10:22;3.00;;;1.00;;
26864;SDS011;40618;51.166;10.322;2023-12-29T06:12:48;2.47;;;1.30;;
26864;SDS011;40618;51.166;10.322;2023-12-29T06:15:14;3.58;;;1.42;;
26864;SDS011;40618;51.166;10.322;2023-12-29T06:17:40;5.07;;;1.30;;
26864;SDS011;40618;51.166;10.322;2023-12-29T06:20:06;3.13;;;1.00;;
26864;SDS011;40618;51.166;10.322;2023-12-29T06:22:33;2.55;;;1.25;;
26864;SDS011;40618;51.166;10.322;2023-12-29T06:24:58;3.97;;;1.17;;
26864;SDS011;40618;51.166;10.322;2023-12-29T06:27:25;4.25;;;1.73;;
26864;SDS011;40618;51.166;10.322;2023-12-29T06:29:51;2.10;;;1.02;;
26864;SDS011;40618;51.166;10.322;2023-12-29T06:32:16;7.95;;;1.55;;
26864;SDS011;40618;51.166;10.322;2023-12-29T06:34:42;3.05;;;1.83;;
26864;SDS011;40618;51.166;10.322;2023-12-29T06:37:08;2.97;;;1.30;;
26864;SDS011;40618;51.166;10.322;2023-12-29T06:39:33;3.92;;;1.13;;
26864;SDS011;40618;51.166;10.322;2023-12-29T06:41:59;2.80;;;1.10;;
26864;SDS011;40618;51.166;10.322;2023-12-29T06:44:25;2.90;;;0.98;;
26864;SDS011;40618;51.166;10.322;2023-12-29T06:46:50;2.03;;;1.17;;
26864;SDS011;40618;51.166;10.322;2023-12-29T06:49:16;3.75;;;1.15;;
26864;SDS011;40618;51.166;10.322;2023-12-29T06:51:41;2.13;;;1.13;;
26864;SDS011;40618;51.166;10.322;2023-12-29T06:54:07;2.22;;;1.20;;
26864;SDS011;40618;51.166;10.322;2023-12-29T06:56:33;2.80;;;1.30;;
26864;SDS011;40618;51.166;10.322;2023-12-29T06:58:58;3.50;;;1.30;;
26864;SDS011;40618;51.166;10.322;2023-12-29T07:01:24;4.32;;;1.25;;
26864;SDS011;40618;51.166;10.322;2023-12-29T07:03:49;2.67;;;1.10;;
26864;SDS011;40618;51.166;10.322;2023-12-29T07:06:15;3.67;;;1.08;;
26864;SDS011;40618;51.166;10.322;2023-12-29T07:08:41;2.92;;;1.30;;
26864;SDS011;40618;51.166;10.322;2023-12-29T07:11:10;4.13;;;1.00;;
26864;SDS011;40618;51.166;10.322;2023-12-29T07:13:39;3.63;;;1.38;;
26864;SDS011;40618;51.166;10.322;2023-12-29T07:16:04;2.35;;;1.35;;
26864;SDS011;40618;51.166;10.322;2023-12-29T07:18:30;2.72;;;1.17;;
26864;SDS011;40618;51.166;10.322;2023-12-29T07:20:56;1.63;;;0.95;;
26864;SDS011;40618;51.166;10.322;2023-12-29T07:23:21;4.10;;;1.80;;
26864;SDS011;40618;51.166;10.322;2023-12-29T07:25:47;2.30;;;0.90;;
26864;SDS011;40618;51.166;10.322;2023-12-29T07:28:13;4.78;;;1.80;;
26864;SDS011;40618;51.166;10.322;2023-12-29T07:30:39;6.88;;;1.70;;
26864;SDS011;40618;51.166;10.322;2023-12-29T07:33:05;3.22;;;1.48;;
26864;SDS011;40618;51.166;10.322;2023-12-29T07:35:30;3.83;;;1.40;;
26864;SDS011;40618;51.166;10.322;2023-12-29T07:37:56;3.10;;;1.73;;
26864;SDS011;40618;51.166;10.322;2023-12-29T07:40:21;3.65;;;1.33;;
26864;SDS011;40618;51.166;10.322;2023-12-29T07:42:47;3.72;;;1.30;;
26864;SDS011;40618;51.166;10.322;2023-12-29T07:45:15;3.22;;;1.92;;
26864;SDS011;40618;51.166;10.322;2023-12-29T07:47:42;4.82;;;2.55;;
26864;SDS011;40618;51.166;10.322;2023-12-29T07:50:08;3.05;;;1.50;;
26864;SDS011;40618;51.166;10.322;2023-12-29T07:52:34;6.90;;;2.33;;
26864;SDS011;40618;51.166;10.322;2023-12-29T07:54:59;4.55;;;3.20;;
26864;SDS011;40618;51.166;10.322;2023-12-29T07:57:25;5.10;;;1.50;;
26864;SDS011;40618;51.166;10.322;2023-12-29T07:59:51;3.67;;;2.30;;
26864;SDS011;40618;51.166;10.322;2023-12-29T08:02:16;4.47;;;2.28;;
26864;SDS011;40618;51.166;10.322;2023-12-29T08:04:42;2.60;;;1.83;;
26864;SDS011;40618;51.166;10.322;2023-12-29T08:07:07;4.57;;;1.60;;
26864;SDS011;40618;51.166;10.322;2023-12-29T08:09:34;3.00;;;1.10;;
26864;SDS011;40618;51.166;10.322;2023-12-29T08:12:00;3.92;;;1.40;;
26864;SDS011;40618;51.166;10.322;2023-12-29T08:14:26;2.58;;;0.95;;
26864;SDS011;40618;51.166;10.322;2023-12-29T08:16:51;2.00;;;0.80;;
26864;SDS011;40618;51.166;10.322;2023-12-29T08:19:17;3.13;;;0.80;;
26864;SDS011;40618;51.166;10.322;2023-12-29T08:21:42;4.00;;;1.10;;
26864;SDS011;40618;51.166;10.322;2023-12-29T08:24:08;2.25;;;1.08;;
26864;SDS011;40618;51.166;10.322;2023-12-29T08:26:33;2.10;;;1.30;;
26864;SDS011;40618;51.166;10.322;2023-12-29T08:28:59;3.40;;;1.55;;
26864;SDS011;40618;51.166;10.322;2023-12-29T08:31:24;1.95;;;1.10;;
26864;SDS011;40618;51.166;10.322;2023-12-29T08:33:51;2.70;;;1.30;;
26864;SDS011;40618;51.166;10.322;2023-12-29T08:36:20;4.10;;;2.45;;
26864;SDS011;40618;51.166;10.322;2023-12-29T08:38:46;3.35;;;1.50;;
26864;SDS011;40618;51.166;10.322;2023-12-29T08:41:15;3.05;;;1.08;;
26864;SDS011;40618;51.166;10.322;2023-12-29T08:43:40;4.38;;;1.50;;
26864;SDS011;40618;51.166;10.322;2023-12-29T08:46:06;3.05;;;1.25;;
26864;SDS011;40618;51.166;10.322;2023-12-29T08:48:31;3.63;;;1.30;;
26864;SDS011;40618;51.166;10.322;2023-12-29T08:50:57;4.43;;;1.17;;
26864;SDS011;40618;51.166;10.322;2023-12-29T08:53:23;2.72;;;1.10;;
26864;SDS011;40618;51.166;10.322;2023-12-29T08:55:48;3.42;;;1.02;;
26864;SDS011;40618;51.166;10.322;2023-12-29T08:58:14;4.60;;;1.30;;
26864;SDS011;40618;51.166;10.322;2023-12-29T09:00:40;3.22;;;1.00;;
26864;SDS011;40618;51.166;10.322;2023-12-29T09:03:05;2.55;;;1.35;;
26864;SDS011;40618;51.166;10.322;2023-12-29T09:05:31;1.83;;;0.60;;
26864;SDS011;40618;51.166;10.322;2023-12-29T09:07:56;2.45;;;1.10;;
26864;SDS011;40618;51.166;10.322;2023-12-29T09:10:22;4.20;;;1.40;;
26864;SDS011;40618;51.166;10.322;2023-12-29T09:12:48;1.42;;;0.90;;
26864;SDS011;40618;51.166;10.322;2023-12-29T09:15:14;3.53;;;1.10;;
26864;SDS011;40618;51.166;10.322;2023-12-29T09:17:41;3.13;;;1.13;;
26864;SDS011;40618;51.166;10.322;2023-12-29T09:20:06;2.00;;;0.90;;
26864;SDS011;40618;51.166;10.322;2023-12-29T09:22:33;4.55;;;1.80;;
26864;SDS011;40618;51.166;10.322;2023-12-29T09:24:59;2.28;;;1.20;;
26864;SDS011;40618;51.166;10.322;2023-12-29T09:27:25;4.18;;;1.48;;
26864;SDS011;40618;51.166;10.322;2023-12-29T09:29:50;2.35;;;1.05;;
26864;SDS011;40618;51.166;10.322;2023-12-29T09:32:16;3.75;;;1.23;;
26864;SDS011;40618;51.166;10.322;2023-12-29T09:34:41;1.73;;;1.00;;
26864;SDS011;40618;51.166;10.322;2023-12-29T09:37:07;2.78;;;1.10;;
26864;SDS011;40618;51.166;10.322;2023-12-29T09:39:33;4.32;;;1.55;;
26864;SDS011;40618;51.166;10.322;2023-12-29T09:41:59;4.95;;;1.70;;
26864;SDS011;40618;51.166;10.322;2023-12-29T09:44:28;3.05;;;1.40;;
26864;SDS011;40618;51.166;10.322;2023-12-29T09:46:57;2.40;;;0.93;;
26864;SDS011;40618;51.166;10.322;2023-12-29T09:49:33;1.77;;;1.05;;
26864;SDS011;40618;51.166;10.322;2023-12-29T09:52:09;5.10;;;1.85;;
26864;SDS011;40618;51.166;10.322;2023-12-29T09:54:38;2.53;;;1.50;;
26864;SDS011;40618;51.166;10.322;2023-12-29T09:57:05;3.28;;;1.40;;
26864;SDS011;40618;51.166;10.322;2023-12-29T09:59:34;2.15;;;1.40;;
26864;SDS011;40618;51.166;10.322;2023-12-29T10:02:06;4.45;;;2.10;;
26864;SDS011;40618;51.166;10.322;2023-12-29T10:04:40;2.45;;;1.65;;
26864;SDS011;40618;51.166;10.322;2023-12-29T10:07:06;2.15;;;1.70;;
26864;SDS011;40618;51.166;10.322;2023-12-29T10:09:34;3.72;;;1.52;;
26864;SDS011;40618;51.166;10.322;2023-12-29T10:12:04;4.25;;;1.45;;
26864;SDS011;40618;51.166;10.322;2023-12-29T10:14:37;3.90;;;1.42;;
26864;SDS011;40618;51.166;10.322;2023-12-29T10:23:11;1.83;;;1.40;;
26864;SDS011;40618;51.166;10.322;2023-12-29T10:25:43;1.35;;;1.10;;
26864;SDS011;40618;51.166;10.322;2023-12-29T10:28:09;1.50;;;1.00;;
26864;SDS011;40618;51.166;10.322;2023-12-29T10:30:35;4.05;;;1.20;;
26864;SDS011;40618;51.166;10.322;2023-12-29T10:33:05;2.58;;;1.17;;
26864;SDS011;40618;51.166;10.322;2023-12-29T10:35:31;2.25;;;1.02;;
26864;SDS011;40618;51.166;10.322;2023-12-29T10:38:07;2.00;;;1.00;;
26864;SDS011;40618;51.166;10.322;2023-12-29T10:40:37;4.15;;;1.08;;
26864;SDS011;40618;51.166;10.322;2023-12-29T10:43:03;1.88;;;1.20;;
26864;SDS011;40618;51.166;10.322;2023-12-29T10:45:33;3.65;;;1.67;;
26864;SDS011;40618;51.166;10.322;2023-12-29T10:48:00;1.88;;;1.40;;
26864;SDS011;40618;51.166;10.322;2023-12-29T10:50:26;3.75;;;1.27;;
26864;SDS011;40618;51.166;10.322;2023-12-29T10:53:11;2.58;;;1.70;;
26864;SDS011;40618;51.166;10.322;2023-12-29T10:55:38;4.40;;;2.00;;
26864;SDS011;40618;51.166;10.322;2023-12-29T10:58:04;3.65;;;2.10;;
26864;SDS011;40618;51.166;10.322;2023-12-29T11:00:31;5.97;;;3.28;;
26864;SDS011;40618;51.166;10.322;2023-12-29T11:03:00;3.47;;;1.95;;
26864;SDS011;40618;51.166;10.322;2023-12-29T11:05:26;3.97;;;1.85;;
26864;SDS011;40618;51.166;10.322;2023-12-29T11:07:52;5.95;;;3.05;;
26864;SDS011;40618;51.166;10.322;2023-12-29T11:10:20;6.97;;;4.15;;
26864;SDS011;40618;51.166;10.322;2023-12-29T11:12:49;5.03;;;2.60;;
26864;SDS011;40618;51.166;10.322;2023-12-29T11:15:15;3.22;;;1.60;;
26864;SDS011;40618;51.166;10.322;2023-12-29T11:17:42;7.70;;;3.15;;
26864;SDS011;40618;51.166;10.322;2023-12-29T11:20:15;2.22;;;1.67;;
26864;SDS011;40618;51.166;10.322;2023-12-29T11:22:41;5.03;;;2.67;;
26864;SDS011;40618;51.166;10.322;2023-12-29T11:25:09;2.13;;;1.48;;
26864;SDS011;40618;51.166;10.322;2023-12-29T11:27:36;1.90;;;1.02;;
26864;SDS011;40618;51.166;10.322;2023-12-29T11:30:03;4.88;;;1.67;;
26864;SDS011;40618;51.166;10.322;2023-12-29T11:32:32;2.33;;;1.55;;
26864;SDS011;40618;51.166;10.322;2023-12-29T11:43:59;3.55;;;1.65;;
26864;SDS011;40618;51.166;10.322;2023-12-29T11:46:32;3.08;;;1.25;;
26864;SDS011;40618;51.166;10.322;2023-12-29T11:49:00;2.38;;;1.60;;
26864;SDS011;40618;51.166;10.322;2023-12-29T11:51:32;1.98;;;1.20;;
26864;SDS011;40618;51.166;10.322;2023-12-29T11:54:00;4.32;;;1.55;;
26864;SDS011;40618;51.166;10.322;2023-12-29T11:56:34;2.95;;;0.80;;
26864;SDS011;40618;51.166;10.322;2023-12-29T11:59:15;3.55;;;1.13;;
26864;SDS011;40618;51.166;10.322;2023-12-29T12:01:52;2.63;;;1.10;;
26864;SDS011;40618;51.166;10.322;2023-12-29T12:12:49;3.10;;;1.60;;
26864;SDS011;40618;51.166;10.322;2023-12-29T12:17:57;3.35;;;0.95;;
26864;SDS011;40618;51.166;10.322;2023-12-29T12:20:25;1.20;;;0.90;;
26864;SDS011;40618;51.166;10.322;2023-12-29T12:25:27;2.60;;;1.27;;
26864;SDS011;40618;51.166;10.322;2023-12-29T12:27:56;2.85;;;1.38;;
26864;SDS011;40618;51.166;10.322;2023-12-29T12:30:22;2.38;;;1.85;;
26864;SDS011;40618;51.166;10.322;2023-12-29T12:33:00;2.90;;;1.50;;
26864;SDS011;40618;51.166;10.322;2023-12-29T12:35:29;1.42;;;0.90;;
26864;SDS011;40618;51.166;10.322;2023-12-29T12:40:34;4.28;;;2.10;;
26864;SDS011;40618;51.166;10.322;2023-12-29T12:43:00;4.60;;;1.35;;
26864;SDS011;40618;51.166;10.322;2023-12-29T12:45:27;2.47;;;1.48;;
26864;SDS011;40618;51.166;10.322;2023-12-29T12:48:03;1.77;;;1.20;;
26864;SDS011;40618;51.166;10.322;2023-12-29T12:50:44;3.63;;;1.23;;
26864;SDS011;40618;51.166;10.322;2023-12-29T12:53:11;3.25;;;1.60;;
26864;SDS011;40618;51.166;10.322;2023-12-29T12:55:44;0.88;;;0.73;;
26864;SDS011;40618;51.166;10.322;2023-12-29T12:58:15;1.70;;;0.90;;
26864;SDS011;40618;51.166;10.322;2023-12-29T13:00:47;2.17;;;0.95;;
26864;SDS011;40618;51.166;10.322;2023-12-29T13:03:16;2.90;;;0.73;;
26864;SDS011;40618;51.166;10.322;2023-12-29T13:05:42;1.98;;;0.90;;
26864;SDS011;40618;51.166;10.322;2023-12-29T13:08:09;2.45;;;0.98;;
26864;SDS011;40618;51.166;10.322;2023-12-29T13:10:40;1.40;;;1.00;;
26864;SDS011;40618;51.166;10.322;2023-12-29T13:13:07;0.52;;;0.52;;
26864;SDS011;40618;51.166;10.322;2023-12-29T13:15:33;1.30;;;0.65;;
26864;SDS011;40618;51.166;10.322;2023-12-29T13:17:59;0.90;;;0.80;;
26864;SDS011;40618;51.166;10.322;2023-12-29T13:20:24;2.42;;;1.10;;
26864;SDS011;40618;51.166;10.322;2023-12-29T13:22:50;2.55;;;1.15;;
26864;SDS011;40618;51.166;10.322;2023-12-29T13:25:34;0.50;;;0.50;;
26864;SDS011;40618;51.166;10.322;2023-12-29T13:28:02;1.23;;;0.88;;
26864;SDS011;40618;51.166;10.322;2023-12-29T13:30:28;1.13;;;0.82;;
26864;SDS011;40618;51.166;10.322;2023-12-29T13:32:54;2.85;;;1.55;;
26864;SDS011;40618;51.166;10.322;2023-12-29T13:35:22;1.02;;;0.90;;
26864;SDS011;40618;51.166;10.322;2023-12-29T13:38:02;1.02;;;0.80;;
26864;SDS011;40618;51.166;10.322;2023-12-29T13:40:51;1.55;;;0.88;;
26864;SDS011;40618;51.166;10.322;2023-12-29T13:43:23;3.15;;;1.60;;
26864;SDS011;40618;51.166;10.322;2023-12-29T13:45:49;2.47;;;1.50;;
26864;SDS011;40618;51.166;10.322;2023-12-29T13:48:16;1.98;;;1.50;;
26864;SDS011;40618;51.166;10.322;2023-12-29T13:50:44;2.15;;;1.42;;
26864;SDS011;40618;51.166;10.322;2023-12-29T13:53:18;2.58;;;2.00;;
26864;SDS011;40618;51.166;10.322;2023-12-29T13:55:45;5.13;;;3.05;;
26864;SDS011;40618;51.166;10.322;2023-12-29T13:58:11;3.53;;;1.80;;
26864;SDS011;40618;51.166;10.322;2023-12-29T14:00:37;9.25;;;5.18;;
26864;SDS011;40618;51.166;10.322;2023-12-29T14:03:06;6.10;;;3.78;;
26864;SDS011;40618;51.166;10.322;2023-12-29T14:05:48;5.25;;;2.45;;
26864;SDS011;40618;51.166;10.322;2023-12-29T14:08:25;1.60;;;1.20;;
26864;SDS011;40618;51.166;10.322;2023-12-29T14:10:59;1.38;;;0.90;;
26864;SDS011;40618;51.166;10.322;2023-12-29T14:13:25;2.28;;;1.63;;
26864;SDS011;40618;51.166;10.322;2023-12-29T14:15:52;2.55;;;1.45;;
26864;SDS011;40618;51.166;10.322;2023-12-29T14:20:46;4.63;;;3.15;;
26864;SDS011;40618;51.166;10.322;2023-12-29T14:23:11;2.17;;;1.73;;
26864;SDS011;40618;51.166;10.322;2023-12-29T14:25:38;5.07;;;2.45;;
26864;SDS011;40618;51.166;10.322;2023-12-29T14:28:13;9.95;;;5.38;;
26864;SDS011;40618;51.166;10.322;2023-12-29T14:30:42;8.00;;;4.22;;
26864;SDS011;40618;51.166;10.322;2023-12-29T14:33:07;8.25;;;5.25;;
26864;SDS011;40618;51.166;10.322;2023-12-29T14:35:33;6.25;;;3.75;;
26864;SDS011;40618;51.166;10.322;2023-12-29T14:37:59;8.30;;;4.53;;
26864;SDS011;40618;51.166;10.322;2023-12-29T14:40:25;3.25;;;2.33;;
26864;SDS011;40618;51.166;10.322;2023-12-29T14:42:51;2.25;;;0.90;;
26864;SDS011;40618;51.166;10.322;2023-12-29T14:45:16;1.45;;;0.90;;
26864;SDS011;40618;51.166;10.322;2023-12-29T14:47:42;1.30;;;1.20;;
26864;SDS011;40618;51.166;10.322;2023-12-29T14:50:10;2.13;;;1.40;;
26864;SDS011;40618;51.166;10.322;2023-12-29T14:52:36;1.42;;;0.85;;
26864;SDS011;40618;51.166;10.322;2023-12-29T14:55:02;1.38;;;0.73;;
26864;SDS011;40618;51.166;10.322;2023-12-29T14:57:31;0.90;;;0.70;;
26864;SDS011;40618;51.166;10.322;2023-12-29T14:59:58;1.50;;;0.80;;
26864;SDS011;40618;51.166;10.322;2023-12-29T15:02:23;0.40;;;0.40;;
26864;SDS011;40618;51.166;10.322;2023-12-29T15:04:49;1.42;;;0.98;;
26864;SDS011;40618;51.166;10.322;2023-12-29T15:07:15;1.15;;;0.80;;